createdAt,value
2024-04-25T00:01:00.598Z,81.89
2024-04-25T00:03:27.577Z,81.66
2024-04-25T00:05:54.475Z,81.57
2024-04-25T00:08:21.289Z,81.79
2024-04-25T00:10:55.935Z,81.41
2024-04-25T00:13:29.288Z,81.38
2024-04-25T00:15:57.080Z,81.62
2024-04-25T00:18:24.396Z,81.87
2024-04-25T00:20:51.452Z,81.79
2024-04-25T00:23:18.358Z,81.70
2024-04-25T00:25:45.122Z,82.18
2024-04-25T00:28:15.700Z,81.50
2024-04-25T00:30:42.673Z,81.82
2024-04-25T00:33:09.797Z,81.74
2024-04-25T00:35:36.898Z,81.56
2024-04-25T00:38:04.080Z,81.81
2024-04-25T00:40:30.896Z,81.73
2024-04-25T00:42:59.964Z,81.36
2024-04-25T00:45:29.357Z,81.59
2024-04-25T00:47:56.782Z,81.44
2024-04-25T00:50:24.530Z,81.43
2024-04-25T00:52:51.544Z,81.81
2024-04-25T00:55:18.572Z,81.82
2024-04-25T00:57:46.778Z,81.61
2024-04-25T01:00:15.540Z,81.81
2024-04-25T01:02:46.362Z,81.45
2024-04-25T01:05:14.156Z,81.41
2024-04-25T01:07:40.940Z,81.44
2024-04-25T01:10:08.068Z,81.70
2024-04-25T01:12:34.867Z,81.45
2024-04-25T01:15:01.735Z,81.55
2024-04-25T01:17:30.787Z,81.46
2024-04-25T01:20:00.440Z,81.60
2024-04-25T01:22:35.220Z,81.46
2024-04-25T01:25:07.134Z,81.55
2024-04-25T01:27:34.664Z,81.72
2024-04-25T01:30:02.285Z,81.71
2024-04-25T01:32:31.097Z,81.28
2024-04-25T01:34:58.702Z,81.62
2024-04-25T01:37:25.555Z,81.27
2024-04-25T01:39:52.457Z,81.46
2024-04-25T01:42:22.094Z,81.64
2024-04-25T01:44:48.881Z,81.64
2024-04-25T01:47:15.806Z,81.20
2024-04-25T01:49:42.631Z,81.33
2024-04-25T01:52:09.503Z,81.12
2024-04-25T01:54:36.271Z,81.67
2024-04-25T01:57:03.079Z,81.07
2024-04-25T01:59:32.539Z,81.63
2024-04-25T02:01:59.352Z,81.16
2024-04-25T02:04:26.366Z,81.29
2024-04-25T02:06:53.145Z,81.43
2024-04-25T02:09:19.915Z,81.61
2024-04-25T02:11:46.835Z,81.95
2024-04-25T02:14:13.881Z,81.87
2024-04-25T02:16:43.339Z,81.61
2024-04-25T02:19:10.108Z,81.75
2024-04-25T02:22:12.167Z,81.39
2024-04-25T02:24:57.961Z,81.39
2024-04-25T02:27:24.761Z,81.71
2024-04-25T02:29:51.600Z,81.57
2024-04-25T02:32:21.135Z,81.31
2024-04-25T02:34:48.163Z,81.86
2024-04-25T02:37:14.980Z,81.31
2024-04-25T02:39:41.814Z,81.74
2024-04-25T02:42:08.680Z,81.46
2024-04-25T02:44:35.683Z,81.82
2024-04-25T02:47:02.668Z,81.74
2024-04-25T02:49:32.234Z,81.18
2024-04-25T02:51:59.024Z,81.21
2024-04-25T02:54:25.996Z,81.07
2024-04-25T02:56:52.816Z,80.65
2024-04-25T02:59:19.685Z,80.91
2024-04-25T03:01:46.510Z,81.09
2024-04-25T03:04:13.361Z,81.19
2024-04-25T03:06:42.804Z,81.57
2024-04-25T03:09:10.417Z,81.46
2024-04-25T03:11:37.393Z,81.31
2024-04-25T03:14:05.393Z,81.67
2024-04-25T03:16:32.265Z,81.65
2024-04-25T03:18:59.385Z,81.22
2024-04-25T03:21:26.234Z,81.65
2024-04-25T03:23:55.642Z,81.47
2024-04-25T03:26:22.459Z,81.28
2024-04-25T03:28:49.289Z,81.53
2024-04-25T03:31:19.296Z,81.11
2024-04-25T03:33:48.341Z,81.34
2024-04-25T03:36:15.202Z,81.19
2024-04-25T03:38:42.044Z,81.28
2024-04-25T03:41:16.941Z,81.47
2024-04-25T03:43:44.034Z,81.03
2024-04-25T03:46:10.806Z,80.99
2024-04-25T03:48:37.784Z,81.17
2024-04-25T03:51:05.338Z,81.27
2024-04-25T03:53:32.143Z,81.34
2024-04-25T03:55:58.960Z,81.16
2024-04-25T03:58:28.405Z,81.31
2024-04-25T04:00:55.466Z,81.28
2024-04-25T04:03:22.531Z,81.04
2024-04-25T04:05:49.401Z,81.41
2024-04-25T04:08:16.898Z,81.14
2024-04-25T04:10:45.254Z,81.25
2024-04-25T04:13:12.280Z,81.38
2024-04-25T04:15:41.804Z,81.04
2024-04-25T04:18:08.907Z,81.04
2024-04-25T04:20:36.707Z,81.05
2024-04-25T04:23:03.579Z,80.91
2024-04-25T04:25:30.422Z,81.19
2024-04-25T04:27:57.262Z,81.41
2024-04-25T04:30:24.063Z,81.10
2024-04-25T04:32:54.236Z,81.14
2024-04-25T04:35:21.166Z,80.78
2024-04-25T04:37:48.288Z,81.01
2024-04-25T04:40:15.047Z,80.80
2024-04-25T04:42:41.846Z,80.90
2024-04-25T04:45:08.742Z,80.87
2024-04-25T04:47:35.601Z,80.62
2024-04-25T04:50:05.926Z,81.06
2024-04-25T04:52:33.683Z,80.76
2024-04-25T04:55:00.645Z,80.54
2024-04-25T04:57:27.408Z,81.20
2024-04-25T04:59:54.196Z,80.75
2024-04-25T05:02:21.026Z,80.83
2024-04-25T05:04:48.621Z,80.64
2024-04-25T05:07:18.090Z,80.58
2024-04-25T05:09:45.024Z,81.03
2024-04-25T05:12:11.924Z,80.74
2024-04-25T05:14:38.758Z,80.84
2024-04-25T05:17:06.413Z,80.86
2024-04-25T05:19:33.349Z,80.68
2024-04-25T05:22:00.131Z,80.59
2024-04-25T05:24:29.712Z,80.94
2024-04-25T05:26:56.653Z,80.66
2024-04-25T05:29:23.553Z,80.73
2024-04-25T05:31:50.461Z,80.74
2024-04-25T05:34:17.384Z,81.27
2024-04-25T05:36:44.251Z,81.33
2024-04-25T05:39:11.113Z,80.94
2024-04-25T05:41:40.534Z,81.58
2024-04-25T05:44:07.443Z,81.39
2024-04-25T05:46:34.272Z,81.59
2024-04-25T05:49:01.166Z,81.65
2024-04-25T05:51:28.003Z,81.61
2024-04-25T05:53:55.002Z,81.50
2024-04-25T05:56:21.833Z,81.33
2024-04-25T05:58:53.329Z,81.46
2024-04-25T06:01:21.003Z,81.28
2024-04-25T06:03:48.036Z,81.39
2024-04-25T06:06:14.861Z,81.19
2024-04-25T06:08:41.775Z,81.68
2024-04-25T06:11:10.281Z,81.29
2024-04-25T06:13:37.116Z,81.49
2024-04-25T06:16:07.661Z,81.48
2024-04-25T06:18:34.441Z,81.44
2024-04-25T06:21:01.246Z,81.66
2024-04-25T06:23:28.230Z,81.70
2024-04-25T06:25:55.211Z,82.00
2024-04-25T06:28:22.008Z,81.91
2024-04-25T06:30:48.803Z,81.62
2024-04-25T06:33:18.425Z,81.52
2024-04-25T06:35:45.422Z,81.96
2024-04-25T06:38:15.976Z,81.51
2024-04-25T06:40:43.668Z,81.80
2024-04-25T06:43:10.657Z,81.68
2024-04-25T06:45:37.776Z,81.80
2024-04-25T06:48:06.049Z,82.07
2024-04-25T06:50:35.693Z,82.28
2024-04-25T06:53:02.510Z,82.20
2024-04-25T06:55:29.389Z,82.03
2024-04-25T06:57:56.179Z,82.23
2024-04-25T07:00:23.197Z,81.99
2024-04-25T07:02:50.087Z,82.46
2024-04-25T07:05:16.946Z,82.50
2024-04-25T07:07:46.423Z,82.14
2024-04-25T07:10:13.641Z,82.21
2024-04-25T07:12:41.079Z,81.63
2024-04-25T07:15:08.256Z,81.92
2024-04-25T07:17:35.319Z,82.28
2024-04-25T07:20:02.366Z,81.95
2024-04-25T07:22:29.203Z,81.82
2024-04-25T07:24:59.361Z,81.82
2024-04-25T07:27:26.251Z,82.46
2024-04-25T07:29:53.099Z,82.14
2024-04-25T07:32:19.999Z,82.24
2024-04-25T07:34:46.862Z,82.23
2024-04-25T07:37:13.643Z,82.34
2024-04-25T07:39:40.595Z,81.97
2024-04-25T07:42:11.134Z,81.93
2024-04-25T07:44:38.094Z,82.35
2024-04-25T07:47:06.251Z,82.48
2024-04-25T07:49:33.112Z,82.27
2024-04-25T07:51:59.894Z,82.62
2024-04-25T07:54:29.702Z,82.23
2024-04-25T07:56:56.550Z,82.57
2024-04-25T07:59:26.633Z,81.95
2024-04-25T08:02:01.594Z,82.21
2024-04-25T08:04:28.681Z,82.13
2024-04-25T08:06:55.556Z,82.21
2024-04-25T08:09:22.301Z,82.14
2024-04-25T08:11:49.355Z,81.83
2024-04-25T08:14:16.363Z,82.21
2024-04-25T08:16:47.204Z,82.42
2024-04-25T08:19:14.045Z,82.13
2024-04-25T08:21:40.992Z,82.26
2024-04-25T08:24:08.454Z,82.30
2024-04-25T08:26:35.306Z,82.04
2024-04-25T08:29:02.182Z,81.69
2024-04-25T08:31:29.016Z,82.10
2024-04-25T08:33:58.576Z,81.48
2024-04-25T08:36:25.509Z,81.95
2024-04-25T08:38:53.037Z,81.65
2024-04-25T08:41:20.740Z,81.48
2024-04-25T08:43:48.307Z,81.38
2024-04-25T08:46:18.284Z,81.23
2024-04-25T08:48:45.975Z,80.65
2024-04-25T08:51:18.550Z,80.46
2024-04-25T08:53:46.258Z,80.94
2024-04-25T08:56:15.180Z,80.93
2024-04-25T08:58:42.175Z,80.52
2024-04-25T09:01:09.696Z,80.95
2024-04-25T09:03:36.620Z,80.56
2024-04-25T09:06:03.679Z,80.90
2024-04-25T09:08:33.172Z,80.75
2024-04-25T09:11:01.728Z,80.52
2024-04-25T09:13:28.508Z,80.27
2024-04-25T09:16:00.720Z,80.48
2024-04-25T09:18:29.330Z,80.82
2024-04-25T09:20:56.158Z,80.59
2024-04-25T09:23:22.980Z,80.50
2024-04-25T09:25:52.501Z,80.53
2024-04-25T09:28:19.280Z,80.42
2024-04-25T09:30:46.170Z,79.99
2024-04-25T09:33:13.343Z,80.46
2024-04-25T09:35:42.699Z,79.90
2024-04-25T09:38:09.630Z,79.89
2024-04-25T09:40:36.550Z,80.26
2024-04-25T09:43:06.459Z,80.04
2024-04-25T09:45:36.259Z,79.90
2024-04-25T09:48:10.201Z,80.02
2024-04-25T09:50:42.647Z,79.83
2024-04-25T09:53:13.906Z,80.08
2024-04-25T09:55:45.473Z,79.73
2024-04-25T09:58:26.801Z,79.94
2024-04-25T10:00:55.046Z,79.85
2024-04-25T10:03:22.970Z,79.73
2024-04-25T10:05:50.493Z,79.65
2024-04-25T10:08:17.583Z,79.51
2024-04-25T10:10:44.992Z,79.37
2024-04-25T10:13:16.046Z,79.48
2024-04-25T10:15:42.984Z,79.39
2024-04-25T10:18:10.112Z,79.17
2024-04-25T10:20:36.996Z,78.95
2024-04-25T10:23:05.803Z,79.16
2024-04-25T10:25:32.884Z,79.00
2024-04-25T10:28:01.574Z,79.26
2024-04-25T10:30:31.326Z,78.89
2024-04-25T10:32:58.311Z,78.76
2024-04-25T10:35:26.069Z,78.46
2024-04-25T10:37:54.154Z,78.21
2024-04-25T10:40:22.027Z,78.09
2024-04-25T10:42:59.958Z,77.75
2024-04-25T10:45:31.057Z,78.49
2024-04-25T10:47:58.717Z,78.09
2024-04-25T10:50:25.664Z,78.16
2024-04-25T10:52:52.497Z,78.68
2024-04-25T10:55:20.034Z,78.87
2024-04-25T10:57:46.834Z,78.80
2024-04-25T11:00:14.328Z,79.07
2024-04-25T11:02:43.807Z,79.18
2024-04-25T11:05:10.847Z,79.08
2024-04-25T11:07:38.961Z,79.28
2024-04-25T11:10:07.194Z,78.86
2024-04-25T11:12:34.358Z,78.66
2024-04-25T11:15:01.244Z,78.70
2024-04-25T11:17:34.039Z,78.43
2024-04-25T11:20:08.705Z,78.44
2024-04-25T11:22:45.238Z,78.35
2024-04-25T11:25:18.278Z,78.48
2024-04-25T11:27:45.496Z,78.34
2024-04-25T11:30:12.370Z,78.03
2024-04-25T11:32:40.381Z,78.18
2024-04-25T11:35:10.568Z,78.23
2024-04-25T11:37:38.100Z,77.78
2024-04-25T11:40:06.222Z,77.91
2024-04-25T11:42:33.213Z,77.83
2024-04-25T11:45:00.861Z,78.07
2024-04-25T11:47:27.851Z,78.05
2024-04-25T11:49:54.692Z,77.62
2024-04-25T11:52:24.152Z,77.51
2024-04-25T11:54:51.429Z,77.39
2024-04-25T11:57:18.514Z,77.35
2024-04-25T11:59:45.490Z,77.15
2024-04-25T12:02:13.675Z,77.24
2024-04-25T12:04:40.532Z,77.23
2024-04-25T12:07:07.416Z,77.11
2024-04-25T12:09:36.899Z,76.65
2024-04-25T12:12:04.126Z,76.74
2024-04-25T12:14:31.035Z,76.63
2024-04-25T12:16:57.893Z,76.61
2024-04-25T12:19:24.740Z,76.64
2024-04-25T12:21:51.606Z,76.50
2024-04-25T12:24:18.424Z,76.41
2024-04-25T12:26:47.954Z,76.00
2024-04-25T12:29:14.842Z,76.15
2024-04-25T12:31:41.683Z,76.22
2024-04-25T12:34:11.723Z,76.49
2024-04-25T12:36:40.534Z,76.17
2024-04-25T12:39:07.421Z,76.64
2024-04-25T12:41:34.468Z,76.56
2024-04-25T12:44:04.086Z,76.67
2024-04-25T12:46:30.850Z,76.21
2024-04-25T12:48:57.837Z,75.91
2024-04-25T12:51:24.738Z,75.74
2024-04-25T12:53:51.852Z,75.57
2024-04-25T12:56:19.584Z,75.69
2024-04-25T12:58:46.423Z,75.89
2024-04-25T13:01:15.894Z,75.81
2024-04-25T13:03:43.874Z,75.27
2024-04-25T13:06:11.405Z,75.44
2024-04-25T13:08:41.973Z,75.29
2024-04-25T13:11:09.023Z,74.90
2024-04-25T13:13:36.153Z,74.51
2024-04-25T13:16:02.993Z,74.46
2024-04-25T13:18:34.089Z,74.50
2024-04-25T13:21:03.612Z,73.93
2024-04-25T13:23:30.984Z,73.80
2024-04-25T13:25:57.831Z,73.36
2024-04-25T13:28:24.645Z,73.44
2024-04-25T13:30:51.411Z,73.30
2024-04-25T13:33:18.685Z,73.49
2024-04-25T13:35:48.443Z,73.47
2024-04-25T13:38:15.364Z,73.41
2024-04-25T13:40:42.303Z,71.92
2024-04-25T13:43:12.818Z,72.32
2024-04-25T13:45:39.849Z,72.34
2024-04-25T13:48:07.724Z,72.21
2024-04-25T13:50:34.691Z,71.21
2024-04-25T13:53:04.410Z,72.21
2024-04-25T13:55:31.252Z,71.95
2024-04-25T13:57:58.111Z,71.29
2024-04-25T14:00:24.893Z,71.82
2024-04-25T14:02:51.779Z,71.69
2024-04-25T14:05:18.757Z,71.03
2024-04-25T14:07:47.195Z,71.25
2024-04-25T14:10:16.621Z,70.44
2024-04-25T14:12:43.384Z,70.44
2024-04-25T14:15:11.163Z,70.41
2024-04-25T14:17:41.642Z,70.46
2024-04-25T14:20:08.667Z,70.13
2024-04-25T14:22:35.487Z,70.00
2024-04-25T14:25:22.204Z,69.64
2024-04-25T14:28:10.895Z,70.04
2024-04-25T14:30:38.192Z,69.78
2024-04-25T14:33:05.803Z,69.77
2024-04-25T14:35:35.673Z,69.84
2024-04-25T14:38:02.567Z,69.25
2024-04-25T14:40:29.839Z,69.38
2024-04-25T14:42:59.402Z,69.17
2024-04-25T14:45:26.324Z,68.74
2024-04-25T14:47:53.326Z,69.14
2024-04-25T14:50:20.244Z,68.84
2024-04-25T14:52:47.099Z,68.88
2024-04-25T14:55:18.144Z,69.04
2024-04-25T14:57:45.515Z,68.93
2024-04-25T15:00:15.687Z,68.80
2024-04-25T15:02:43.616Z,68.63
2024-04-25T15:05:10.654Z,68.88
2024-04-25T15:07:37.533Z,68.23
2024-04-25T15:10:04.893Z,68.44
2024-04-25T15:12:36.553Z,68.37
2024-04-25T15:15:11.673Z,68.26
2024-04-25T15:17:50.044Z,68.14
2024-04-25T15:20:17.349Z,68.10
2024-04-25T15:22:44.379Z,67.87
2024-04-25T15:25:11.745Z,67.75
2024-04-25T15:27:38.618Z,67.61
2024-04-25T15:30:06.709Z,67.48
2024-04-25T15:32:33.601Z,67.73
2024-04-25T15:35:04.881Z,67.25
2024-04-25T15:37:34.004Z,67.39
2024-04-25T15:40:00.872Z,67.07
2024-04-25T15:42:27.684Z,66.95
2024-04-25T15:44:54.521Z,67.35
2024-04-25T15:47:21.680Z,67.06
2024-04-25T15:49:48.570Z,66.89
2024-04-25T15:52:18.209Z,66.69
2024-04-25T15:54:49.724Z,66.33
2024-04-25T15:57:16.701Z,66.21
2024-04-25T15:59:43.631Z,66.58
2024-04-25T16:02:10.600Z,66.25
2024-04-25T16:04:37.457Z,66.37
2024-04-25T16:07:04.252Z,66.59
2024-04-25T16:09:33.759Z,66.56
2024-04-25T16:12:00.691Z,66.09
2024-04-25T16:14:27.735Z,66.26
2024-04-25T16:16:54.545Z,66.26
2024-04-25T16:19:30.345Z,66.26
2024-04-25T16:22:01.770Z,66.38
2024-04-25T16:24:29.390Z,65.51
2024-04-25T16:26:59.565Z,65.97
2024-04-25T16:29:27.235Z,66.13
2024-04-25T16:31:54.217Z,66.15
2024-04-25T16:34:21.158Z,66.03
2024-04-25T16:36:48.059Z,66.44
2024-04-25T16:39:14.929Z,66.48
2024-04-25T16:41:41.770Z,66.50
2024-04-25T16:44:11.269Z,66.25
2024-04-25T16:46:39.815Z,66.39
2024-04-25T16:49:06.806Z,66.99
2024-04-25T16:51:33.658Z,66.87
2024-04-25T16:54:00.425Z,66.75
2024-04-25T16:56:27.350Z,66.92
2024-04-25T16:58:55.200Z,67.06
2024-04-25T17:01:24.722Z,67.06
2024-04-25T17:03:51.591Z,67.26
2024-04-25T17:06:18.482Z,67.67
2024-04-25T17:08:45.272Z,67.74
2024-04-25T17:11:17.572Z,67.63
2024-04-25T17:13:45.189Z,67.68
2024-04-25T17:16:12.011Z,68.15
2024-04-25T17:18:41.545Z,68.72
2024-04-25T17:21:10.355Z,68.93
2024-04-25T17:23:39.297Z,68.81
2024-04-25T17:26:09.665Z,68.98
2024-04-25T17:28:36.553Z,68.87
2024-04-25T17:31:03.363Z,69.26
2024-04-25T17:33:30.303Z,69.42
2024-04-25T17:35:59.867Z,69.21
2024-04-25T17:38:26.691Z,69.58
2024-04-25T17:40:53.476Z,70.03
2024-04-25T17:43:20.298Z,69.66
2024-04-25T17:45:47.116Z,70.24
2024-04-25T17:48:15.626Z,70.11
2024-04-25T17:50:42.717Z,70.45
2024-04-25T17:53:12.143Z,70.56
2024-04-25T17:55:38.974Z,70.64
2024-04-25T17:58:05.952Z,70.58
2024-04-25T18:00:33.939Z,71.19
2024-04-25T18:03:02.745Z,70.70
2024-04-25T18:05:30.514Z,71.02
2024-04-25T18:07:57.335Z,71.33
2024-04-25T18:10:26.806Z,71.49
2024-04-25T18:12:53.585Z,71.31
2024-04-25T18:15:20.785Z,71.54
2024-04-25T18:17:47.688Z,71.56
2024-04-25T18:20:14.693Z,71.57
2024-04-25T18:22:43.757Z,71.47
2024-04-25T18:25:11.491Z,71.55
2024-04-25T18:27:41.581Z,71.45
2024-04-25T18:30:10.223Z,72.04
2024-04-25T18:32:37.834Z,71.85
2024-04-25T18:35:06.515Z,72.23
2024-04-25T18:37:33.897Z,72.00
2024-04-25T18:40:01.606Z,72.48
2024-04-25T18:42:28.667Z,72.59
2024-04-25T18:44:58.092Z,72.70
2024-04-25T18:47:25.083Z,72.46
2024-04-25T18:49:52.017Z,72.57
2024-04-25T18:52:18.833Z,72.81
2024-04-25T18:54:47.749Z,72.95
2024-04-25T18:57:15.296Z,72.83
2024-04-25T18:59:42.236Z,72.98
2024-04-25T19:02:11.715Z,72.96
2024-04-25T19:04:38.590Z,73.30
2024-04-25T19:07:06.365Z,73.14
2024-04-25T19:09:33.229Z,73.57
2024-04-25T19:12:00.128Z,73.32
2024-04-25T19:14:27.135Z,73.26
2024-04-25T19:16:54.179Z,73.60
2024-04-25T19:19:23.714Z,73.39
2024-04-25T19:21:51.853Z,73.50
2024-04-25T19:24:20.799Z,73.59
2024-04-25T19:26:51.656Z,74.08
2024-04-25T19:29:20.280Z,74.06
2024-04-25T19:31:48.668Z,73.72
2024-04-25T19:34:20.450Z,73.80
2024-04-25T19:36:52.365Z,73.71
2024-04-25T19:39:19.347Z,73.75
2024-04-25T19:41:49.050Z,73.92
2024-04-25T19:44:16.249Z,73.88
2024-04-25T19:46:43.470Z,73.85
2024-04-25T19:49:10.297Z,74.09
2024-04-25T19:51:40.971Z,73.87
2024-04-25T19:54:10.494Z,74.31
2024-04-25T19:56:37.421Z,74.46
2024-04-25T19:59:04.284Z,74.20
2024-04-25T20:01:31.091Z,74.06
2024-04-25T20:03:57.883Z,74.13
2024-04-25T20:06:25.897Z,73.98
2024-04-25T20:08:53.067Z,74.23
2024-04-25T20:11:23.093Z,74.25
2024-04-25T20:13:50.121Z,74.28
2024-04-25T20:16:17.450Z,74.19
2024-04-25T20:19:03.214Z,74.24
2024-04-25T20:21:30.448Z,74.04
2024-04-25T20:23:58.118Z,74.17
2024-04-25T20:26:30.105Z,73.93
2024-04-25T20:28:57.251Z,74.16
2024-04-25T20:31:24.776Z,74.25
2024-04-25T20:33:52.054Z,74.35
2024-04-25T20:36:19.313Z,73.81
2024-04-25T20:38:47.173Z,74.36
2024-04-25T20:41:14.109Z,74.17
2024-04-25T20:43:43.678Z,74.47
2024-04-25T20:46:10.515Z,74.22
2024-04-25T20:48:37.452Z,74.55
2024-04-25T20:51:04.460Z,74.35
2024-04-25T20:53:31.385Z,74.66
2024-04-25T20:55:58.308Z,74.48
2024-04-25T20:58:28.253Z,74.53
2024-04-25T21:01:00.491Z,74.80
2024-04-25T21:03:27.503Z,75.26
2024-04-25T21:05:57.036Z,75.45
2024-04-25T21:08:26.916Z,75.62
2024-04-25T21:10:54.241Z,75.28
2024-04-25T21:13:21.130Z,75.57
2024-04-25T21:15:50.682Z,75.48
2024-04-25T21:18:20.463Z,75.67
2024-04-25T21:20:49.970Z,75.83
2024-04-25T21:23:17.068Z,76.11
2024-04-25T21:25:51.004Z,76.33
2024-04-25T21:28:21.169Z,75.95
2024-04-25T21:30:47.926Z,76.22
2024-04-25T21:33:14.854Z,76.17
2024-04-25T21:35:44.581Z,76.24
2024-04-25T21:38:11.382Z,76.55
2024-04-25T21:40:38.547Z,76.87
2024-04-25T21:43:05.567Z,76.95
2024-04-25T21:45:32.388Z,76.83
2024-04-25T21:47:59.327Z,76.89
2024-04-25T21:50:26.180Z,77.12
2024-04-25T21:52:55.640Z,77.12
2024-04-25T21:55:22.512Z,76.92
2024-04-25T21:57:49.579Z,77.42
2024-04-25T22:00:16.955Z,77.48
2024-04-25T22:02:43.818Z,77.69
2024-04-25T22:05:10.640Z,77.63
2024-04-25T22:07:37.515Z,77.77
2024-04-25T22:10:07.968Z,77.67
2024-04-25T22:12:34.840Z,77.95
2024-04-25T22:15:01.878Z,77.98
2024-04-25T22:17:28.945Z,78.29
2024-04-25T22:19:55.900Z,78.00
2024-04-25T22:22:22.899Z,78.15
2024-04-25T22:24:50.005Z,78.08
2024-04-25T22:27:21.091Z,78.74
2024-04-25T22:29:47.987Z,79.00
2024-04-25T22:32:15.957Z,78.97
2024-04-25T22:34:45.691Z,79.42
2024-04-25T22:37:12.816Z,79.45
2024-04-25T22:39:40.158Z,79.28
2024-04-25T22:42:07.335Z,78.93
2024-04-25T22:44:37.152Z,78.97
2024-04-25T22:47:04.068Z,79.41
2024-04-25T22:49:30.898Z,79.57
2024-04-25T22:51:57.925Z,79.36
2024-04-25T22:54:24.826Z,79.31
2024-04-25T22:56:51.707Z,79.48
2024-04-25T22:59:18.533Z,79.57
2024-04-25T23:01:47.987Z,79.54
2024-04-25T23:04:16.316Z,79.67
2024-04-25T23:06:43.226Z,79.73
2024-04-25T23:09:10.518Z,79.85
2024-04-25T23:11:37.375Z,79.89
2024-04-25T23:14:04.484Z,79.45
2024-04-25T23:16:31.334Z,79.75
2024-04-25T23:19:00.804Z,79.83
2024-04-25T23:21:27.588Z,80.12
2024-04-25T23:23:54.427Z,79.82
2024-04-25T23:26:21.324Z,79.83
2024-04-25T23:28:48.115Z,79.80
2024-04-25T23:31:17.480Z,80.21
2024-04-25T23:33:44.395Z,80.33
2024-04-25T23:36:13.958Z,80.32
2024-04-25T23:38:43.076Z,80.23
2024-04-25T23:41:09.901Z,80.75
2024-04-25T23:43:39.806Z,80.67
2024-04-25T23:46:06.811Z,80.71
2024-04-25T23:48:33.730Z,80.73
2024-04-25T23:51:04.673Z,80.63
2024-04-25T23:53:34.234Z,80.43
2024-04-25T23:56:01.375Z,80.87
2024-04-25T23:58:28.247Z,80.69
